createdAt,value
2023-06-27T00:00:14.341Z,66.10
2023-06-27T00:02:42.271Z,66.20
2023-06-27T00:05:10.835Z,66.20
2023-06-27T00:07:39.207Z,66.50
2023-06-27T00:10:10.146Z,66.70
2023-06-27T00:12:38.524Z,66.40
2023-06-27T00:15:07.660Z,66.60
2023-06-27T00:17:36.214Z,66.70
2023-06-27T00:20:04.294Z,66.80
2023-06-27T00:22:32.455Z,67.60
2023-06-27T00:25:00.244Z,66.90
2023-06-27T00:27:29.311Z,67.00
2023-06-27T00:29:57.090Z,66.90
2023-06-27T00:32:24.886Z,67.10
2023-06-27T00:34:52.824Z,67.20
2023-06-27T00:37:20.577Z,67.30
2023-06-27T00:39:48.419Z,67.40
2023-06-27T00:42:16.196Z,67.40
2023-06-27T00:44:45.278Z,67.40
2023-06-27T00:47:13.070Z,67.50
2023-06-27T00:49:41.099Z,67.60
2023-06-27T00:52:09.905Z,67.70
2023-06-27T00:54:37.977Z,67.70
2023-06-27T00:57:06.061Z,67.70
2023-06-27T00:59:35.309Z,67.80
2023-06-27T01:02:05.551Z,67.80
2023-06-27T01:04:33.475Z,67.90
2023-06-27T01:07:10.417Z,68.00
2023-06-27T01:09:43.829Z,68.00
2023-06-27T01:12:17.746Z,68.00
2023-06-27T01:14:47.832Z,68.00
2023-06-27T01:17:18.602Z,68.10
2023-06-27T01:19:47.933Z,68.00
2023-06-27T01:22:18.759Z,68.10
2023-06-27T01:24:48.664Z,68.20
2023-06-27T01:27:16.707Z,68.20
2023-06-27T01:29:44.522Z,68.30
2023-06-27T01:32:19.252Z,68.40
2023-06-27T01:34:53.198Z,68.40
2023-06-27T01:37:27.142Z,68.40
2023-06-27T01:40:02.630Z,68.40
2023-06-27T01:42:36.359Z,68.50
2023-06-27T01:45:06.211Z,68.50
2023-06-27T01:47:36.357Z,68.50
2023-06-27T01:50:04.515Z,68.70
2023-06-27T01:52:32.366Z,68.80
2023-06-27T01:55:01.606Z,68.70
2023-06-27T01:57:29.516Z,68.70
2023-06-27T01:59:57.675Z,69.60
2023-06-27T02:02:25.553Z,68.90
2023-06-27T02:04:53.497Z,68.90
2023-06-27T02:07:21.406Z,69.10
2023-06-27T02:09:49.390Z,69.20
2023-06-27T02:12:18.597Z,69.20
2023-06-27T02:14:46.348Z,69.20
2023-06-27T02:17:14.208Z,69.40
2023-06-27T02:19:42.041Z,69.30
2023-06-27T02:22:09.865Z,69.30
2023-06-27T02:24:37.644Z,69.30
2023-06-27T02:27:05.837Z,69.40
2023-06-27T02:29:34.965Z,69.40
2023-06-27T02:32:02.749Z,69.50
2023-06-27T02:34:30.965Z,69.50
2023-06-27T02:36:58.736Z,69.40
2023-06-27T02:39:26.519Z,69.50
2023-06-27T02:41:54.335Z,69.50
2023-06-27T02:44:22.127Z,69.70
2023-06-27T02:46:51.280Z,69.80
2023-06-27T02:49:19.124Z,69.80
2023-06-27T02:51:46.910Z,69.80
2023-06-27T02:54:14.765Z,69.70
2023-06-27T02:56:42.547Z,69.90
2023-06-27T02:59:10.370Z,69.90
2023-06-27T03:01:38.175Z,69.90
2023-06-27T03:04:17.945Z,70.00
2023-06-27T03:06:46.743Z,70.00
2023-06-27T03:09:14.611Z,70.10
2023-06-27T03:11:42.524Z,70.30
2023-06-27T03:14:10.314Z,70.30
2023-06-27T03:16:38.216Z,70.40
2023-06-27T03:19:07.332Z,70.20
2023-06-27T03:21:35.147Z,70.20
2023-06-27T03:24:02.965Z,70.30
2023-06-27T03:26:31.414Z,70.30
2023-06-27T03:28:59.210Z,70.50
2023-06-27T03:31:27.054Z,70.40
2023-06-27T03:33:56.050Z,70.50
2023-06-27T03:36:25.915Z,70.60
2023-06-27T03:38:54.061Z,70.50
2023-06-27T03:41:23.024Z,70.70
2023-06-27T03:43:50.804Z,70.60
2023-06-27T03:46:18.928Z,70.60
2023-06-27T03:48:46.730Z,70.80
2023-06-27T03:51:14.496Z,70.80
2023-06-27T03:53:43.624Z,70.80
2023-06-27T03:56:11.411Z,71.00
2023-06-27T03:58:39.180Z,71.10
2023-06-27T04:01:07.078Z,71.20
2023-06-27T04:03:34.918Z,71.20
2023-06-27T04:06:02.728Z,71.10
2023-06-27T04:08:30.486Z,71.10
2023-06-27T04:10:59.578Z,71.10
2023-06-27T04:13:27.370Z,71.20
2023-06-27T04:15:55.113Z,71.10
2023-06-27T04:18:23.601Z,71.20
2023-06-27T04:20:52.488Z,71.30
2023-06-27T04:23:20.286Z,71.40
2023-06-27T04:26:04.012Z,71.40
2023-06-27T04:28:32.449Z,71.60
2023-06-27T04:31:01.158Z,71.60
2023-06-27T04:33:29.519Z,71.70
2023-06-27T04:36:02.254Z,71.80
2023-06-27T04:38:31.303Z,71.90
2023-06-27T04:40:59.115Z,72.00
2023-06-27T04:43:28.973Z,72.00
2023-06-27T04:45:56.753Z,72.00
2023-06-27T04:48:24.536Z,71.90
2023-06-27T04:50:52.325Z,72.10
2023-06-27T04:53:21.031Z,72.20
2023-06-27T04:55:49.221Z,72.20
2023-06-27T04:58:17.315Z,72.20
2023-06-27T05:00:48.240Z,72.20
2023-06-27T05:03:16.111Z,72.20
2023-06-27T05:05:44.678Z,72.40
2023-06-27T05:08:13.020Z,72.30
2023-06-27T05:10:40.816Z,72.40
2023-06-27T05:13:08.602Z,72.50
2023-06-27T05:15:36.394Z,72.50
2023-06-27T05:18:27.168Z,72.50
2023-06-27T05:20:55.926Z,72.40
2023-06-27T05:23:23.960Z,72.50
2023-06-27T05:25:52.166Z,72.70
2023-06-27T05:28:19.958Z,72.60
2023-06-27T05:30:47.919Z,72.80
2023-06-27T05:33:15.721Z,72.80
2023-06-27T05:35:44.876Z,72.70
2023-06-27T05:38:12.703Z,72.80
2023-06-27T05:40:40.625Z,72.90
2023-06-27T05:43:09.702Z,72.80
2023-06-27T05:45:38.344Z,72.90
2023-06-27T05:48:07.220Z,72.90
2023-06-27T05:50:35.510Z,73.00
2023-06-27T05:53:05.322Z,73.10
2023-06-27T05:55:33.205Z,73.30
2023-06-27T05:58:01.004Z,73.40
2023-06-27T06:00:28.832Z,73.90
2023-06-27T06:02:56.879Z,73.20
2023-06-27T06:05:24.754Z,73.10
2023-06-27T06:07:52.694Z,72.70
2023-06-27T06:10:23.164Z,71.90
2023-06-27T06:12:51.108Z,71.70
2023-06-27T06:15:19.389Z,71.30
2023-06-27T06:17:47.313Z,70.80
2023-06-27T06:20:15.772Z,70.50
2023-06-27T06:22:43.832Z,70.60
2023-06-27T06:25:11.631Z,70.80
2023-06-27T06:27:40.726Z,71.00
2023-06-27T06:30:10.123Z,71.10
2023-06-27T06:32:37.938Z,71.20
2023-06-27T06:35:07.389Z,71.80
2023-06-27T06:37:35.367Z,71.50
2023-06-27T06:40:03.221Z,71.50
2023-06-27T06:42:31.636Z,71.80
2023-06-27T06:45:00.841Z,71.50
2023-06-27T06:47:29.072Z,71.40
2023-06-27T06:49:56.906Z,71.50
2023-06-27T06:52:24.804Z,71.50
2023-06-27T06:54:52.626Z,71.40
2023-06-27T06:57:20.530Z,71.40
2023-06-27T06:59:48.805Z,71.40
2023-06-27T07:02:18.013Z,71.30
2023-06-27T07:04:45.867Z,71.30
2023-06-27T07:07:13.753Z,71.40
2023-06-27T07:09:41.635Z,71.30
2023-06-27T07:12:10.140Z,71.40
2023-06-27T07:14:37.924Z,71.30
2023-06-27T07:17:06.147Z,71.40
2023-06-27T07:19:35.277Z,71.30
2023-06-27T07:22:03.172Z,71.30
2023-06-27T07:24:30.933Z,71.30
2023-06-27T07:26:58.710Z,71.20
2023-06-27T07:29:26.663Z,71.30
2023-06-27T07:31:54.504Z,71.20
2023-06-27T07:34:22.763Z,71.20
2023-06-27T07:36:52.300Z,71.10
2023-06-27T07:39:22.967Z,71.20
2023-06-27T07:41:51.327Z,71.20
2023-06-27T07:44:19.191Z,71.20
2023-06-27T07:46:46.959Z,71.20
2023-06-27T07:49:16.666Z,71.30
2023-06-27T07:51:44.452Z,71.20
2023-06-27T07:54:13.579Z,71.20
2023-06-27T07:56:41.377Z,71.20
2023-06-27T07:59:10.014Z,71.20
2023-06-27T08:01:37.907Z,71.30
2023-06-27T08:04:05.901Z,71.10
2023-06-27T08:06:33.853Z,70.90
2023-06-27T08:09:01.983Z,70.90
2023-06-27T08:11:31.102Z,70.90
2023-06-27T08:13:58.877Z,70.90
2023-06-27T08:16:26.712Z,70.80
2023-06-27T08:18:54.506Z,70.70
2023-06-27T08:21:22.310Z,70.70
2023-06-27T08:23:50.120Z,70.60
2023-06-27T08:26:18.744Z,70.70
2023-06-27T08:28:48.135Z,70.50
2023-06-27T08:31:16.269Z,70.40
2023-06-27T08:33:44.052Z,70.40
2023-06-27T08:36:12.957Z,70.40
2023-06-27T08:38:40.725Z,70.30
2023-06-27T08:41:11.409Z,70.30
2023-06-27T08:43:40.220Z,70.10
2023-06-27T08:46:10.626Z,70.20
2023-06-27T08:48:41.742Z,70.30
2023-06-27T08:51:12.371Z,70.10
2023-06-27T08:53:43.749Z,70.00
2023-06-27T08:56:15.244Z,70.10
2023-06-27T08:58:47.265Z,69.90
2023-06-27T09:01:16.581Z,69.50
2023-06-27T09:03:44.569Z,69.40
2023-06-27T09:06:14.411Z,69.30
2023-06-27T09:08:43.227Z,69.30
2023-06-27T09:11:11.435Z,69.20
2023-06-27T09:13:39.868Z,69.20
2023-06-27T09:16:08.178Z,69.10
2023-06-27T09:18:39.239Z,69.10
2023-06-27T09:21:07.567Z,68.80
2023-06-27T09:23:35.429Z,68.90
2023-06-27T09:26:10.989Z,68.70
2023-06-27T09:28:49.551Z,68.70
2023-06-27T09:31:19.734Z,69.40
2023-06-27T09:33:51.782Z,68.70
2023-06-27T09:39:09.544Z,68.40
2023-06-27T09:41:42.632Z,68.50
2023-06-27T09:44:14.582Z,68.30
2023-06-27T09:46:44.000Z,68.50
2023-06-27T09:49:13.271Z,68.50
2023-06-27T09:51:41.200Z,68.50
2023-06-27T09:54:09.036Z,68.30
2023-06-27T09:56:37.035Z,68.40
2023-06-27T09:59:17.598Z,67.90
2023-06-27T10:01:52.400Z,67.80
2023-06-27T10:04:38.589Z,68.20
2023-06-27T10:07:08.266Z,68.10
2023-06-27T10:09:36.980Z,68.10
2023-06-27T10:12:06.829Z,68.10
2023-06-27T10:14:34.865Z,68.10
2023-06-27T10:17:05.698Z,68.30
2023-06-27T10:19:38.010Z,68.30
2023-06-27T10:22:12.617Z,68.00
2023-06-27T10:24:43.291Z,67.00
2023-06-27T10:27:14.246Z,67.30
2023-06-27T10:29:42.794Z,67.50
2023-06-27T10:32:10.940Z,67.50
2023-06-27T10:34:43.148Z,67.50
2023-06-27T10:37:13.522Z,67.50
2023-06-27T10:39:42.896Z,68.10
2023-06-27T10:42:28.932Z,67.30
2023-06-27T10:45:07.824Z,67.50
2023-06-27T10:47:37.013Z,67.10
2023-06-27T10:50:14.870Z,66.80
2023-06-27T10:53:00.752Z,66.70
2023-06-27T10:55:33.884Z,66.30
2023-06-27T10:58:08.001Z,65.50
2023-06-27T11:00:36.486Z,64.60
2023-06-27T11:03:07.794Z,65.40
2023-06-27T11:05:55.082Z,65.40
2023-06-27T11:08:28.177Z,65.30
2023-06-27T11:11:08.976Z,65.10
2023-06-27T11:13:38.358Z,65.20
2023-06-27T11:16:07.014Z,64.70
2023-06-27T11:18:35.956Z,64.60
2023-06-27T11:21:06.117Z,65.10
2023-06-27T11:23:35.132Z,64.40
2023-06-27T11:26:03.034Z,64.00
2023-06-27T11:28:30.824Z,64.80
2023-06-27T11:31:02.473Z,65.10
2023-06-27T11:33:30.563Z,65.70
2023-06-27T11:36:00.413Z,65.60
2023-06-27T11:38:30.859Z,65.50
2023-06-27T11:40:59.141Z,65.30
2023-06-27T11:43:28.331Z,65.40
2023-06-27T11:45:58.401Z,65.00
2023-06-27T11:48:26.253Z,64.60
2023-06-27T11:51:05.894Z,65.00
2023-06-27T11:53:37.023Z,65.00
2023-06-27T11:58:39.654Z,65.40
2023-06-27T12:01:14.131Z,65.30
2023-06-27T12:03:43.165Z,65.30
2023-06-27T12:06:25.843Z,65.10
2023-06-27T12:08:55.099Z,65.00
2023-06-27T12:11:28.159Z,64.60
2023-06-27T12:13:55.943Z,64.70
2023-06-27T12:16:26.022Z,64.00
2023-06-27T12:18:53.910Z,64.10
2023-06-27T12:21:21.721Z,64.00
2023-06-27T12:23:49.671Z,64.20
2023-06-27T12:26:18.874Z,63.80
2023-06-27T12:28:56.805Z,63.60
2023-06-27T12:31:24.665Z,63.80
2023-06-27T12:33:53.938Z,64.10
2023-06-27T12:36:23.716Z,64.10
2023-06-27T12:38:51.849Z,63.70
2023-06-27T12:41:21.958Z,63.00
2023-06-27T12:43:50.527Z,63.20
2023-06-27T12:46:18.773Z,63.10
2023-06-27T12:48:48.363Z,62.70
2023-06-27T12:51:19.902Z,62.00
2023-06-27T12:53:49.312Z,62.30
2023-06-27T12:56:17.575Z,62.80
2023-06-27T12:58:48.484Z,63.00
2023-06-27T13:01:18.134Z,63.20
2023-06-27T13:03:46.523Z,63.50
2023-06-27T13:06:14.606Z,63.60
2023-06-27T13:08:43.081Z,64.40
2023-06-27T13:11:10.980Z,63.30
2023-06-27T13:13:38.792Z,63.50
2023-06-27T13:16:15.908Z,63.80
2023-06-27T13:18:46.549Z,63.70
2023-06-27T13:21:14.381Z,63.40
2023-06-27T13:23:42.147Z,63.10
2023-06-27T13:26:10.576Z,63.00
2023-06-27T13:28:38.333Z,63.10
2023-06-27T13:31:07.582Z,63.40
2023-06-27T13:33:35.375Z,63.50
2023-06-27T13:36:03.366Z,63.30
2023-06-27T13:38:31.211Z,63.10
2023-06-27T13:40:59.182Z,62.70
2023-06-27T13:43:27.006Z,62.20
2023-06-27T13:45:55.601Z,62.50
2023-06-27T13:48:25.278Z,62.80
2023-06-27T13:50:54.456Z,62.70
2023-06-27T13:53:22.935Z,62.70
2023-06-27T13:55:50.800Z,62.60
2023-06-27T13:58:19.853Z,62.60
2023-06-27T14:00:48.693Z,61.80
2023-06-27T14:03:17.425Z,62.00
2023-06-27T14:05:46.870Z,61.70
2023-06-27T14:08:14.739Z,61.90
2023-06-27T14:10:42.837Z,61.20
2023-06-27T14:13:11.305Z,62.60
2023-06-27T14:15:39.826Z,62.50
2023-06-27T14:18:08.651Z,62.40
2023-06-27T14:20:36.489Z,61.90
2023-06-27T14:23:06.080Z,61.50
2023-06-27T14:25:34.147Z,61.10
2023-06-27T14:28:02.044Z,61.70
2023-06-27T14:30:29.871Z,61.80
2023-06-27T14:32:59.675Z,61.60
2023-06-27T14:35:28.141Z,62.20
2023-06-27T14:37:56.147Z,62.50
2023-06-27T14:40:25.522Z,62.60
2023-06-27T14:42:54.207Z,62.80
2023-06-27T14:45:22.075Z,62.60
2023-06-27T14:47:49.940Z,62.30
2023-06-27T14:50:18.987Z,62.30
2023-06-27T14:52:46.869Z,62.20
2023-06-27T14:55:14.815Z,62.10
2023-06-27T14:57:44.099Z,62.10
2023-06-27T15:00:16.932Z,62.20
2023-06-27T15:02:44.890Z,61.80
2023-06-27T15:05:14.231Z,62.30
2023-06-27T15:07:42.361Z,62.40
2023-06-27T15:10:10.858Z,62.50
2023-06-27T15:12:38.687Z,62.70
2023-06-27T15:15:09.397Z,62.50
2023-06-27T15:17:37.288Z,62.00
2023-06-27T15:20:05.736Z,62.50
2023-06-27T15:22:33.620Z,62.60
2023-06-27T15:25:01.458Z,62.90
2023-06-27T15:27:29.403Z,62.60
2023-06-27T15:29:57.234Z,62.70
2023-06-27T15:32:26.382Z,62.50
2023-06-27T15:34:54.170Z,62.50
2023-06-27T15:37:21.936Z,62.20
2023-06-27T15:39:54.665Z,61.90
2023-06-27T15:42:23.207Z,62.00
2023-06-27T15:44:51.180Z,62.20
2023-06-27T15:47:19.476Z,62.00
2023-06-27T15:49:49.695Z,61.60
2023-06-27T15:52:17.466Z,61.30
2023-06-27T15:54:45.310Z,61.30
2023-06-27T15:57:13.156Z,61.20
2023-06-27T15:59:40.954Z,60.60
2023-06-27T16:02:08.728Z,60.80
2023-06-27T16:04:36.576Z,61.00
2023-06-27T16:07:06.320Z,60.20
2023-06-27T16:09:35.228Z,60.70
2023-06-27T16:12:03.065Z,61.00
2023-06-27T16:14:30.855Z,60.60
2023-06-27T16:16:58.681Z,60.60
2023-06-27T16:19:26.636Z,60.30
2023-06-27T16:21:54.440Z,60.00
2023-06-27T16:24:23.576Z,60.30
2023-06-27T16:26:51.323Z,60.50
2023-06-27T16:29:20.224Z,60.30
2023-06-27T16:31:48.025Z,60.40
2023-06-27T16:34:15.903Z,60.40
2023-06-27T16:36:43.748Z,60.20
2023-06-27T16:39:11.567Z,60.30
2023-06-27T16:41:40.686Z,60.20
2023-06-27T16:44:11.532Z,60.40
2023-06-27T16:47:03.216Z,60.20
2023-06-27T16:49:31.535Z,60.30
2023-06-27T16:51:59.406Z,60.10
2023-06-27T16:54:27.464Z,60.40
2023-06-27T16:56:56.654Z,60.60
2023-06-27T16:59:25.827Z,60.40
2023-06-27T17:01:57.694Z,60.10
2023-06-27T17:04:28.044Z,60.20
2023-06-27T17:06:56.153Z,60.50
2023-06-27T17:09:23.999Z,60.50
2023-06-27T17:11:52.235Z,60.80
2023-06-27T17:14:21.882Z,60.70
2023-06-27T17:16:49.763Z,60.80
2023-06-27T17:19:18.682Z,60.70
2023-06-27T17:21:46.622Z,60.60
2023-06-27T17:24:14.602Z,60.60
2023-06-27T17:26:43.100Z,60.50
2023-06-27T17:29:11.008Z,60.70
2023-06-27T17:31:40.280Z,60.40
2023-06-27T17:34:08.557Z,60.70
2023-06-27T17:36:36.447Z,60.80
2023-06-27T17:39:04.462Z,60.90
2023-06-27T17:41:32.402Z,60.90
2023-06-27T17:44:00.349Z,60.80
2023-06-27T17:46:28.780Z,61.00
2023-06-27T17:48:58.088Z,61.10
2023-06-27T17:51:26.157Z,61.20
2023-06-27T17:53:54.281Z,61.10
2023-06-27T17:56:22.774Z,61.00
2023-06-27T17:58:50.667Z,61.10
2023-06-27T18:01:18.735Z,61.20
2023-06-27T18:03:46.648Z,61.20
2023-06-27T18:06:16.327Z,61.60
2023-06-27T18:08:44.131Z,61.60
2023-06-27T18:11:12.288Z,61.50
2023-06-27T18:13:40.076Z,61.50
2023-06-27T18:16:08.228Z,61.50
2023-06-27T18:18:36.052Z,61.50
2023-06-27T18:21:04.083Z,61.60
2023-06-27T18:23:33.302Z,61.70
2023-06-27T18:26:03.270Z,61.70
2023-06-27T18:28:37.249Z,61.50
2023-06-27T18:31:05.105Z,61.80
2023-06-27T18:33:34.235Z,61.50
2023-06-27T18:36:04.132Z,61.80
2023-06-27T18:38:33.958Z,62.00
2023-06-27T18:41:02.623Z,61.80
2023-06-27T18:43:30.944Z,61.90
2023-06-27T18:45:59.000Z,61.90
2023-06-27T18:48:26.814Z,61.90
2023-06-27T18:50:54.673Z,62.00
2023-06-27T18:53:22.492Z,62.10
2023-06-27T18:55:51.701Z,62.20
2023-06-27T18:58:19.532Z,62.20
2023-06-27T19:00:47.320Z,62.10
2023-06-27T19:03:18.686Z,62.20
2023-06-27T19:05:48.344Z,62.20
2023-06-27T19:08:16.817Z,62.30
2023-06-27T19:10:44.953Z,62.30
2023-06-27T19:13:14.461Z,62.80
2023-06-27T19:15:42.317Z,62.50
2023-06-27T19:18:10.659Z,62.60
2023-06-27T19:20:41.071Z,62.70
2023-06-27T19:23:13.794Z,62.60
2023-06-27T19:25:41.616Z,62.70
2023-06-27T19:28:09.685Z,62.80
2023-06-27T19:30:39.320Z,62.80
2023-06-27T19:33:07.394Z,62.70
2023-06-27T19:35:35.953Z,62.80
2023-06-27T19:38:03.819Z,62.70
2023-06-27T19:40:31.702Z,62.80
2023-06-27T19:43:00.401Z,62.90
2023-06-27T19:45:28.380Z,63.00
2023-06-27T19:47:57.934Z,62.90
2023-06-27T19:50:25.864Z,62.90
2023-06-27T19:52:53.678Z,63.00
2023-06-27T19:55:22.011Z,63.00
2023-06-27T19:57:49.868Z,63.00
2023-06-27T20:04:02.211Z,63.10
2023-06-27T20:06:30.112Z,63.10
2023-06-27T20:08:57.960Z,63.10
2023-06-27T20:11:25.922Z,63.20
2023-06-27T20:13:54.308Z,63.20
2023-06-27T20:16:22.098Z,63.20
2023-06-27T20:18:50.906Z,63.30
2023-06-27T20:21:21.864Z,63.40
2023-06-27T20:23:49.672Z,63.40
2023-06-27T20:26:17.583Z,63.60
2023-06-27T20:28:49.926Z,63.50
2023-06-27T20:31:17.977Z,63.60
2023-06-27T20:33:46.206Z,63.70
2023-06-27T20:36:13.980Z,63.70
2023-06-27T20:38:43.125Z,64.10
2023-06-27T20:41:10.958Z,63.80
2023-06-27T20:43:38.761Z,63.80
2023-06-27T20:46:06.537Z,63.90
2023-06-27T20:48:34.333Z,63.90
2023-06-27T20:51:02.153Z,64.00
2023-06-27T20:53:29.983Z,64.10
2023-06-27T20:55:59.194Z,63.90
2023-06-27T20:58:26.996Z,64.10
2023-06-27T21:00:56.620Z,64.10
2023-06-27T21:03:24.583Z,64.10
2023-06-27T21:05:53.895Z,64.10
2023-06-27T21:08:21.682Z,64.10
2023-06-27T21:10:49.881Z,64.00
2023-06-27T21:13:19.179Z,64.20
2023-06-27T21:15:47.225Z,64.20
2023-06-27T21:18:15.064Z,64.20
2023-06-27T21:20:43.066Z,64.10
2023-06-27T21:23:11.083Z,64.20
2023-06-27T21:25:38.909Z,64.30
2023-06-27T21:28:06.697Z,64.20
2023-06-27T21:30:36.897Z,64.10
2023-06-27T21:33:05.462Z,64.20
2023-06-27T21:35:33.246Z,64.30
2023-06-27T21:38:01.046Z,64.50
2023-06-27T21:40:28.866Z,64.30
2023-06-27T21:42:56.649Z,64.30
2023-06-27T21:45:24.653Z,64.60
2023-06-27T21:47:53.815Z,64.90
2023-06-27T21:50:23.058Z,64.70
2023-06-27T21:52:50.912Z,64.70
2023-06-27T21:55:18.969Z,64.90
2023-06-27T21:57:46.787Z,65.00
2023-06-27T22:00:16.901Z,65.00
2023-06-27T22:02:48.757Z,65.10
2023-06-27T22:05:18.526Z,65.20
2023-06-27T22:07:50.121Z,65.20
2023-06-27T22:10:18.572Z,65.10
2023-06-27T22:12:47.020Z,65.30
2023-06-27T22:15:15.182Z,65.40
2023-06-27T22:17:43.010Z,65.50
2023-06-27T22:20:11.548Z,65.60
2023-06-27T22:22:40.865Z,65.70
2023-06-27T22:25:09.193Z,65.70
2023-06-27T22:27:37.091Z,66.00
2023-06-27T22:30:06.025Z,66.10
2023-06-27T22:32:33.947Z,66.00
2023-06-27T22:35:01.796Z,66.30
2023-06-27T22:37:29.619Z,66.40
2023-06-27T22:39:58.742Z,66.30
2023-06-27T22:42:26.530Z,66.50
2023-06-27T22:44:54.384Z,66.60
2023-06-27T22:47:22.286Z,66.80
2023-06-27T22:49:51.227Z,66.90
2023-06-27T22:52:19.040Z,67.00
2023-06-27T22:54:46.837Z,67.10
2023-06-27T22:57:15.999Z,67.00
2023-06-27T22:59:43.826Z,67.00
2023-06-27T23:02:11.689Z,67.10
2023-06-27T23:04:40.954Z,67.10
2023-06-27T23:07:08.981Z,67.20
2023-06-27T23:09:36.810Z,67.30
2023-06-27T23:12:05.000Z,67.20
2023-06-27T23:14:34.147Z,67.10
2023-06-27T23:17:01.955Z,67.10
2023-06-27T23:19:31.435Z,67.20
2023-06-27T23:22:01.366Z,67.30
2023-06-27T23:24:29.380Z,67.20
2023-06-27T23:26:59.262Z,67.30
2023-06-27T23:29:30.081Z,67.30
2023-06-27T23:31:59.862Z,67.30
2023-06-27T23:34:28.267Z,67.50
2023-06-27T23:36:57.017Z,67.30
2023-06-27T23:39:24.814Z,67.30
2023-06-27T23:41:52.989Z,67.40
2023-06-27T23:44:21.018Z,67.50
2023-06-27T23:46:48.938Z,67.50
2023-06-27T23:49:18.175Z,67.50
2023-06-27T23:51:46.001Z,67.50
2023-06-27T23:54:13.817Z,67.50
2023-06-27T23:56:41.592Z,67.50
2023-06-27T23:59:09.470Z,67.60
